Time;durP1;ratioP1;P1;durP2;ratioP2;P2;SDS_P1;SDS_P2;PMS_P1;PMS_P2;Temp;Humidity;BMP_temperature;BMP_pressure;BME280_temperature;BME280_humidity;BME280_pressure;Samples;Min_cycle;Max_cycle;Signal;HPM_P1;HPM_P2
2022/05/05 00:02:04;;;;;;;;;;;;;;;16.34;53.96;100989.19;5052534;28;19917;-81
2022/05/05 00:04:49;;;;;;;;;;;;;;;16.33;54.15;100987.56;5051671;28;19916;-79
2022/05/05 00:07:33;;;;;;;;;;;;;;;16.36;54.02;100988.81;5052318;28;19913;-81
2022/05/05 00:16:25;;;;;;;;;;;;;;;16.30;54.69;100993.78;5067705;28;19913;-81
2022/05/05 00:19:10;;;;;;;;;;;;;;;16.19;55.28;100998.94;5072069;28;19912;-81
2022/05/05 00:21:54;;;;;;;;;;;;;;;16.21;54.98;100999.38;5071201;28;19913;-81
2022/05/05 00:24:39;;;;;;;;;;;;;;;16.19;55.12;100993.44;5071929;28;19912;-79
2022/05/05 00:27:24;;;;;;;;;;;;;;;16.18;55.55;100993.78;5076734;28;19916;-80
2022/05/05 00:30:09;;;;;;;;;;;;;;;16.12;54.81;100993.22;5072870;28;19912;-81
2022/05/05 00:32:53;;;;;;;;;;;;;;;16.09;55.13;101002.16;5071304;28;19912;-80
2022/05/05 00:35:38;;;;;;;;;;;;;;;16.12;54.77;101001.44;5070546;28;19912;-80
2022/05/05 00:38:22;;;;;;;;;;;;;;;16.02;55.26;101001.91;5070202;28;19912;-81
2022/05/05 00:41:06;;;;;;;;;;;;;;;16.01;55.53;101010.50;5072956;28;19920;-82
2022/05/05 00:43:51;;;;;;;;;;;;;;;16.03;55.30;100999.97;5071136;28;19912;-81
2022/05/05 00:46:35;;;;;;;;;;;;;;;16.04;55.27;101009.81;5064524;28;20389;-80
2022/05/05 00:49:21;;;;;;;;;;;;;;;15.97;56.12;100998.59;5062473;28;19920;-81
2022/05/05 00:52:05;;;;;;;;;;;;;;;15.98;56.09;101005.69;5052771;28;19912;-81
2022/05/05 00:54:50;;;;;;;;;;;;;;;15.94;56.27;101007.53;5069771;28;19916;-79
2022/05/05 00:57:36;;;;;;;;;;;;;;;16.00;55.93;101001.44;5070243;28;19913;-80
2022/05/05 01:00:20;;;;;;;;;;;;;;;15.90;56.07;100999.19;5075396;28;19916;-79
2022/05/05 01:03:07;;;;;;;;;;;;;;;15.83;56.00;100999.78;5074869;28;19912;-81
2022/05/05 01:05:52;;;;;;;;;;;;;;;15.72;57.20;101008.78;5074772;28;19916;-81
2022/05/05 01:08:36;;;;;;;;;;;;;;;15.66;57.77;101008.22;5074270;28;19912;-79
2022/05/05 01:11:21;;;;;;;;;;;;;;;15.62;58.15;101004.56;5074805;28;20292;-80
2022/05/05 01:14:06;;;;;;;;;;;;;;;15.61;58.42;101007.63;5068022;28;19912;-80
2022/05/05 01:16:50;;;;;;;;;;;;;;;15.57;58.69;101012.22;5074625;28;19915;-78
2022/05/05 01:19:35;;;;;;;;;;;;;;;15.58;58.78;101017.34;5073799;28;19912;-79
2022/05/05 01:22:20;;;;;;;;;;;;;;;15.51;59.12;101013.53;5068850;28;19916;-81
2022/05/05 01:28:11;;;;;;;;;;;;;;;15.55;58.35;101007.06;5078555;28;19916;-82
2022/05/05 01:30:56;;;;;;;;;;;;;;;15.54;58.22;101007.41;5074551;28;19912;-82
2022/05/05 01:33:40;;;;;;;;;;;;;;;15.50;58.45;101006.44;5071647;28;19916;-82
2022/05/05 01:36:25;;;;;;;;;;;;;;;15.59;58.10;101016.22;5078402;28;19912;-80
2022/05/05 01:39:09;;;;;;;;;;;;;;;15.63;58.46;101021.81;5057301;28;19912;-80
2022/05/05 01:41:53;;;;;;;;;;;;;;;15.58;58.52;101013.81;5074345;28;19912;-81
2022/05/05 01:44:38;;;;;;;;;;;;;;;15.57;58.36;101018.50;5073845;28;19921;-81
2022/05/05 01:47:22;;;;;;;;;;;;;;;15.59;57.98;101021.72;5077013;28;20296;-81
2022/05/05 01:50:07;;;;;;;;;;;;;;;15.50;58.06;101011.94;5075097;28;19912;-81
2022/05/05 01:52:53;;;;;;;;;;;;;;;15.36;58.38;101004.03;5076885;28;20323;-81
2022/05/05 01:55:37;;;;;;;;;;;;;;;15.37;58.35;101006.44;5068231;28;19912;-81
2022/05/05 01:58:23;;;;;;;;;;;;;;;15.39;58.27;101006.09;5073953;28;19912;-80
2022/05/05 02:01:07;;;;;;;;;;;;;;;15.26;58.70;101002.53;5062103;28;19916;-81
2022/05/05 02:03:52;;;;;;;;;;;;;;;15.24;58.80;101002.06;5075385;28;19913;-80
2022/05/05 02:06:36;;;;;;;;;;;;;;;15.24;58.59;100999.31;5068660;28;19917;-80
2022/05/05 02:09:21;;;;;;;;;;;;;;;15.12;58.78;101002.06;5072824;28;19916;-81
2022/05/05 02:12:05;;;;;;;;;;;;;;;15.15;58.49;100993.16;5073941;28;19912;-81
2022/05/05 02:14:50;;;;;;;;;;;;;;;15.19;58.42;100991.31;5064675;28;20105;-81
2022/05/05 02:17:35;;;;;;;;;;;;;;;15.24;58.04;100993.03;5071461;28;19912;-79
2022/05/05 02:20:19;;;;;;;;;;;;;;;15.14;58.29;100986.06;5071863;28;19912;-81
2022/05/05 02:23:04;;;;;;;;;;;;;;;15.17;57.82;100977.19;5053435;28;19912;-81
2022/05/05 02:25:48;;;;;;;;;;;;;;;15.23;58.05;100975.84;5053846;28;19917;-80
2022/05/05 02:28:33;;;;;;;;;;;;;;;15.21;57.94;100983.59;5073613;28;19913;-81
2022/05/05 02:31:17;;;;;;;;;;;;;;;15.17;57.98;100976.38;5073082;28;19912;-81
2022/05/05 02:34:08;;;;;;;;;;;;;;;15.11;58.20;100983.22;5073292;28;19912;-81
2022/05/05 02:39:56;;;;;;;;;;;;;;;14.98;58.62;100979.66;5074277;28;19912;-81
2022/05/05 02:42:40;;;;;;;;;;;;;;;14.85;59.34;100981.53;5072916;28;19917;-81
2022/05/05 02:45:25;;;;;;;;;;;;;;;14.83;59.23;100983.03;5072867;28;19904;-81
2022/05/05 02:48:09;;;;;;;;;;;;;;;14.87;59.39;100981.22;5066433;28;19913;-81
2022/05/05 02:50:54;;;;;;;;;;;;;;;14.74;59.82;100971.34;5072714;28;20373;-78
2022/05/05 02:56:42;;;;;;;;;;;;;;;14.84;60.13;100976.41;5067391;28;19912;-79
2022/05/05 02:59:26;;;;;;;;;;;;;;;15.05;59.87;100977.16;5072664;28;19912;-81
2022/05/05 03:02:10;;;;;;;;;;;;;;;15.04;59.67;100970.06;5065882;28;19926;-80
2022/05/05 03:04:55;;;;;;;;;;;;;;;14.96;59.76;100962.75;5071799;28;19912;-79
2022/05/05 03:07:41;;;;;;;;;;;;;;;15.02;59.92;100968.81;5071414;28;19916;-81
2022/05/05 03:10:27;;;;;;;;;;;;;;;15.04;59.78;100961.84;5072797;28;19912;-81
2022/05/05 03:13:12;;;;;;;;;;;;;;;15.10;59.55;100949.53;5063409;28;19939;-81
2022/05/05 03:15:56;;;;;;;;;;;;;;;15.05;59.75;100955.22;5068503;28;19921;-81
2022/05/05 03:18:41;;;;;;;;;;;;;;;15.10;58.77;100960.50;5065122;28;19916;-80
2022/05/05 03:21:25;;;;;;;;;;;;;;;15.01;58.87;100962.53;5062644;28;19912;-81
2022/05/05 03:24:10;;;;;;;;;;;;;;;15.06;58.62;100956.84;5072059;28;19912;-82
2022/05/05 03:26:54;;;;;;;;;;;;;;;14.93;58.92;100964.22;5072355;28;19917;-80
2022/05/05 03:29:39;;;;;;;;;;;;;;;14.98;58.78;100960.50;5056666;28;19912;-81
2022/05/05 03:32:23;;;;;;;;;;;;;;;15.00;58.58;100966.41;5052311;28;19913;-81
2022/05/05 03:35:08;;;;;;;;;;;;;;;14.96;58.65;100962.75;5056526;28;19912;-81
2022/05/05 03:37:52;;;;;;;;;;;;;;;15.05;58.55;100968.94;5054631;28;19913;-80
2022/05/05 03:40:37;;;;;;;;;;;;;;;15.05;58.61;100968.13;5056786;28;19912;-81
2022/05/05 03:43:21;;;;;;;;;;;;;;;15.06;57.92;100967.00;5074916;28;20381;-80
2022/05/05 03:46:06;;;;;;;;;;;;;;;15.08;58.44;100976.50;5071681;28;19917;-81
2022/05/05 03:48:52;;;;;;;;;;;;;;;15.08;58.36;100973.75;5073279;28;19916;-80
2022/05/05 03:51:36;;;;;;;;;;;;;;;15.08;58.57;100978.44;5076606;28;20385;-80
2022/05/05 03:54:20;;;;;;;;;;;;;;;15.12;58.22;100982.88;5065492;28;19916;-81
2022/05/05 03:57:05;;;;;;;;;;;;;;;15.09;58.25;100985.47;5072612;28;19912;-79
2022/05/05 03:59:49;;;;;;;;;;;;;;;15.11;58.45;100988.69;5070643;28;19917;-80
2022/05/05 04:02:34;;;;;;;;;;;;;;;15.09;59.21;100990.97;5068830;28;19912;-81
2022/05/05 04:05:18;;;;;;;;;;;;;;;14.97;59.94;100989.00;5064842;28;19916;-80
2022/05/05 04:08:03;;;;;;;;;;;;;;;14.92;59.34;100998.25;5072119;28;20296;-81
2022/05/05 04:10:48;;;;;;;;;;;;;;;14.91;59.05;101001.31;5072346;28;19912;-79
2022/05/05 04:13:32;;;;;;;;;;;;;;;14.95;58.91;101003.03;5072183;28;19913;-81
2022/05/05 04:16:16;;;;;;;;;;;;;;;14.92;59.25;101011.13;5069068;28;19912;-80
2022/05/05 04:19:04;;;;;;;;;;;;;;;14.99;59.40;101014.91;5062498;28;19916;-81
2022/05/05 04:21:48;;;;;;;;;;;;;;;14.85;59.88;101019.06;5070490;28;19913;-81
2022/05/05 04:24:33;;;;;;;;;;;;;;;14.76;59.99;101023.84;5071871;28;20388;-81
2022/05/05 04:27:17;;;;;;;;;;;;;;;14.77;59.78;101031.72;5075629;28;19930;-81
2022/05/05 04:30:02;;;;;;;;;;;;;;;14.79;59.65;101034.09;5077890;28;19912;-79
2022/05/05 04:32:47;;;;;;;;;;;;;;;14.67;59.99;101039.53;5091362;28;20364;-81
2022/05/05 04:35:32;;;;;;;;;;;;;;;14.77;59.67;101036.38;5099979;28;20388;-80
2022/05/05 04:38:17;;;;;;;;;;;;;;;14.61;60.29;101030.72;5098675;28;19911;-79
2022/05/05 04:41:02;;;;;;;;;;;;;;;14.54;60.45;101042.19;5061008;28;20389;-81
2022/05/05 04:43:46;;;;;;;;;;;;;;;14.55;60.69;101043.81;5073269;28;19912;-81
2022/05/05 04:46:30;;;;;;;;;;;;;;;14.56;60.97;101052.81;5057024;28;19920;-80
2022/05/05 04:49:15;;;;;;;;;;;;;;;14.56;60.80;101058.28;5065136;28;19913;-81
2022/05/05 04:52:00;;;;;;;;;;;;;;;14.52;61.44;101055.44;5074541;28;19912;-80
2022/05/05 04:54:44;;;;;;;;;;;;;;;14.49;61.66;101050.59;5082480;28;19913;-80
2022/05/05 04:57:28;;;;;;;;;;;;;;;14.50;61.90;101052.22;5095667;28;19912;-80
2022/05/05 05:00:13;;;;;;;;;;;;;;;14.47;62.11;101050.16;5077221;28;19912;-80
2022/05/05 05:02:57;;;;;;;;;;;;;;;14.49;62.37;101055.28;5071738;28;19917;-81
2022/05/05 05:05:42;;;;;;;;;;;;;;;14.51;62.34;101055.75;5073906;28;20384;-80
2022/05/05 05:08:27;;;;;;;;;;;;;;;14.48;62.89;101049.00;5075486;28;19916;-80
2022/05/05 05:11:11;;;;;;;;;;;;;;;14.58;62.78;101044.28;5075231;28;19917;-80
2022/05/05 05:13:55;;;;;;;;;;;;;;;14.65;62.77;101047.28;5073307;28;19913;-81
2022/05/05 05:16:39;;;;;;;;;;;;;;;14.70;62.50;101049.81;5076245;28;19913;-80
2022/05/05 05:19:27;;;;;;;;;;;;;;;14.68;63.40;101052.09;5061521;28;20388;-81
2022/05/05 05:22:11;;;;;;;;;;;;;;;14.70;63.49;101050.59;5068631;28;19912;-80
2022/05/05 05:24:56;;;;;;;;;;;;;;;14.82;62.72;101047.13;5067320;28;19920;-79
2022/05/05 05:27:40;;;;;;;;;;;;;;;14.86;62.96;101048.06;5072229;28;19920;-80
2022/05/05 05:30:27;;;;;;;;;;;;;;;14.92;62.74;101054.94;5077799;28;19913;-81
2022/05/05 05:33:11;;;;;;;;;;;;;;;14.94;63.19;101060.88;5068348;28;19913;-82
2022/05/05 05:35:56;;;;;;;;;;;;;;;15.02;63.08;101072.88;5135316;22;19928;-80
2022/05/05 05:38:40;;;;;;;;;;;;;;;15.13;62.63;101079.56;5085890;28;19920;-80
2022/05/05 05:41:25;;;;;;;;;;;;;;;15.15;62.94;101072.59;5076632;28;19912;-80
2022/05/05 05:44:09;;;;;;;;;;;;;;;15.27;62.22;101078.13;5091501;28;19912;-79
2022/05/05 05:46:54;;;;;;;;;;;;;;;15.34;62.52;101089.31;5065804;28;19916;-80
2022/05/05 05:49:38;;;;;;;;;;;;;;;15.54;61.62;101095.94;5077505;28;19916;-80
2022/05/05 05:52:23;;;;;;;;;;;;;;;15.58;61.74;101099.59;5072726;28;19913;-80
2022/05/05 05:55:07;;;;;;;;;;;;;;;15.72;61.49;101096.53;5079694;28;20384;-80
2022/05/05 05:57:52;;;;;;;;;;;;;;;15.85;61.04;101103.63;5077842;28;19916;-80
2022/05/05 06:00:38;;;;;;;;;;;;;;;15.96;60.45;101095.75;5081880;28;19913;-80
2022/05/05 06:06:27;;;;;;;;;;;;;;;16.22;59.76;101088.78;5067580;28;19916;-81
2022/05/05 06:09:11;;;;;;;;;;;;;;;16.36;59.41;101093.91;5088384;28;19912;-81
2022/05/05 06:11:56;;;;;;;;;;;;;;;16.30;60.04;101100.81;5068625;28;19920;-80
2022/05/05 06:14:40;;;;;;;;;;;;;;;16.39;59.87;101108.91;5077114;28;19912;-80
2022/05/05 06:17:25;;;;;;;;;;;;;;;16.46;59.34;101104.44;5077516;28;19908;-80
2022/05/05 06:20:10;;;;;;;;;;;;;;;16.49;59.45;101102.94;5077289;28;19912;-80
2022/05/05 06:22:54;;;;;;;;;;;;;;;16.51;59.19;101106.94;5076707;28;19913;-80
2022/05/05 06:25:40;;;;;;;;;;;;;;;16.55;59.34;101118.84;5073883;28;19912;-80
2022/05/05 06:28:25;;;;;;;;;;;;;;;16.56;59.39;101119.63;5074666;28;19916;-80
2022/05/05 06:31:09;;;;;;;;;;;;;;;16.57;59.57;101133.00;5070349;28;19912;-80
2022/05/05 06:33:54;;;;;;;;;;;;;;;16.62;59.61;101130.06;5073215;28;19916;-80
2022/05/05 06:36:38;;;;;;;;;;;;;;;16.67;59.56;101129.03;5076422;28;19917;-79
2022/05/05 06:39:22;;;;;;;;;;;;;;;16.67;59.77;101118.03;5076597;28;20376;-81
2022/05/05 06:42:07;;;;;;;;;;;;;;;16.71;59.42;101124.44;5076682;28;20304;-81
2022/05/05 06:44:52;;;;;;;;;;;;;;;16.64;59.82;101129.72;5076248;28;19913;-80
2022/05/05 06:47:36;;;;;;;;;;;;;;;16.74;59.75;101137.50;5076690;28;19916;-81
2022/05/05 06:50:21;;;;;;;;;;;;;;;16.78;59.54;101143.09;5070770;28;19912;-81
2022/05/05 06:53:06;;;;;;;;;;;;;;;16.78;59.56;101145.84;5062677;28;19913;-80
2022/05/05 06:55:50;;;;;;;;;;;;;;;16.87;58.92;101144.53;5066086;28;20384;-80
2022/05/05 06:58:35;;;;;;;;;;;;;;;16.89;59.16;101145.00;5056068;28;19913;-80
2022/05/05 07:07:27;;;;;;;;;;;;;;;16.93;58.89;101137.66;5076504;28;19917;-80
2022/05/05 07:13:15;;;;;;;;;;;;;;;17.00;58.79;101118.66;5073872;28;19913;-80
2022/05/05 07:15:59;;;;;;;;;;;;;;;17.03;58.61;101117.94;5064707;28;19913;-80
2022/05/05 07:18:44;;;;;;;;;;;;;;;17.10;58.28;101112.66;5057319;28;19913;-82
2022/05/05 07:21:28;;;;;;;;;;;;;;;17.17;58.37;101112.03;5058857;28;19920;-81
2022/05/05 07:24:13;;;;;;;;;;;;;;;17.18;58.24;101108.16;5070447;28;19913;-80
2022/05/05 07:26:57;;;;;;;;;;;;;;;17.26;58.49;101111.91;5067063;28;19917;-80
2022/05/05 07:29:42;;;;;;;;;;;;;;;17.25;57.79;101108.38;5072188;28;19913;-80
2022/05/05 07:32:26;;;;;;;;;;;;;;;17.33;57.94;101110.16;5079110;28;19912;-79
2022/05/05 07:35:11;;;;;;;;;;;;;;;17.42;57.74;101107.25;5068341;28;20397;-79
2022/05/05 07:37:56;;;;;;;;;;;;;;;17.40;57.46;101107.59;5070911;28;19920;-79
2022/05/05 07:40:40;;;;;;;;;;;;;;;17.46;57.30;101097.16;5072773;28;19912;-79
2022/05/05 07:43:25;;;;;;;;;;;;;;;17.52;57.25;101104.00;5070518;28;19912;-79
2022/05/05 07:46:10;;;;;;;;;;;;;;;17.56;57.03;101107.63;5067028;28;19913;-79
2022/05/05 07:48:54;;;;;;;;;;;;;;;17.61;57.22;101104.66;5064665;28;19921;-79
2022/05/05 07:51:39;;;;;;;;;;;;;;;17.64;56.93;101114.13;5057769;28;19913;-80
2022/05/05 07:54:39;;;;;;;;;;;;;;;17.69;56.97;101117.44;5055083;28;19912;-79
2022/05/05 07:57:23;;;;;;;;;;;;;;;17.84;55.26;101119.41;5055917;28;19995;-80
2022/05/05 08:00:09;;;;;;;;;;;;;;;18.21;54.81;101117.19;5055764;28;19912;-79
2022/05/05 08:02:56;;;;;;;;;;;;;;;19.30;51.40;101120.75;5056380;28;19938;-80
2022/05/05 08:05:41;;;;;;;;;;;;;;;19.59;50.10;101131.22;5068210;28;19912;-79
2022/05/05 08:08:25;;;;;;;;;;;;;;;20.01;49.38;101125.63;5078383;28;19916;-79
2022/05/05 08:11:10;;;;;;;;;;;;;;;19.99;49.16;101138.22;5079980;28;19912;-79
2022/05/05 08:13:55;;;;;;;;;;;;;;;19.97;48.85;101144.13;5082414;28;19913;-78
2022/05/05 08:16:39;;;;;;;;;;;;;;;19.94;48.81;101135.78;5079272;28;19912;-79
2022/05/05 08:19:24;;;;;;;;;;;;;;;20.21;48.14;101145.72;5094034;28;19912;-79
2022/05/05 08:22:09;;;;;;;11.02;8.50;;;;;;;19.21;50.40;101143.03;5082024;28;20879;-79
2022/05/05 08:31:01;;;;;;;9.73;7.25;;;;;;;19.07;51.78;101158.50;5072163;28;20071;-77
2022/05/05 08:33:46;;;;;;;;;;;;;;;19.27;51.28;101162.06;5068144;28;20067;-78
2022/05/05 08:36:31;;;;;;;9.15;5.63;;;;;;;19.04;51.35;101151.78;5075405;28;19915;-78
2022/05/05 08:39:16;;;;;;;;;;;;;;;18.77;50.89;101167.31;5075429;28;20047;-79
2022/05/05 08:42:03;;;;;;;13.93;7.13;;;;;;;19.10;50.00;101163.28;5073581;28;19913;-80
2022/05/05 08:44:48;;;;;;;13.65;7.30;;;;;;;19.41;49.05;101159.59;5065871;28;20055;-78
2022/05/05 08:47:33;;;;;;;13.25;6.55;;;;;;;19.13;49.77;101162.56;5075656;28;20535;-78
2022/05/05 08:50:19;;;;;;;13.00;7.22;;;;;;;19.08;50.25;101171.94;5073219;28;20055;-83
2022/05/05 08:53:06;;;;;;;10.35;6.13;;;;;;;19.18;50.59;101165.03;5069520;28;20048;-83
2022/05/05 08:55:51;;;;;;;28.85;7.10;;;;;;;19.16;49.89;101167.34;5068615;28;20053;-79
2022/05/05 08:58:36;;;;;;;11.85;5.72;;;;;;;20.11;47.25;101173.16;5078916;28;20408;-82
2022/05/05 09:01:21;;;;;;;13.93;5.13;;;;;;;20.50;44.39;101163.56;5079024;28;20051;-82
2022/05/05 09:04:07;;;;;;;14.27;4.80;;;;;;;20.71;43.84;101169.41;5078459;28;20043;-84
2022/05/05 09:06:53;;;;;;;10.13;4.22;;;;;;;20.40;43.89;101169.72;5074923;28;20051;-83
2022/05/05 09:09:39;;;;;;;7.28;4.38;;;;;;;19.81;45.15;101162.75;5067630;28;20043;-82
2022/05/05 09:12:23;;;;;;;9.63;4.82;;;;;;;20.11;44.27;101157.38;5090908;28;20111;-81
2022/05/05 09:15:10;;;;;;;22.63;4.18;;;;;;;20.56;44.33;101161.28;5068562;28;20039;-80
2022/05/05 09:17:55;;;;;;;4.47;3.78;;;;;;;20.80;42.99;101160.84;5065758;28;20044;-81
2022/05/05 09:20:40;;;;;;;7.35;4.38;;;;;;;20.07;44.29;101160.06;5058639;28;20060;-81
2022/05/05 09:23:34;;;;;;;5.35;3.78;;;;;;;20.42;44.12;101159.06;5060540;28;20051;-81
2022/05/05 09:26:24;;;;;;;5.65;3.95;;;;;;;20.40;43.79;101156.69;5058000;28;20052;-81
2022/05/05 09:29:19;;;;;;;8.20;4.28;;;;;;;19.77;44.35;101152.81;5069621;28;20056;-81
2022/05/05 09:32:12;;;;;;;10.80;4.35;;;;;;;19.51;45.12;101143.28;5078460;28;20055;-81
2022/05/05 09:35:06;;;;;;;9.70;3.85;;;;;;;20.35;43.57;101145.16;5078384;28;20052;-81
2022/05/05 09:37:54;;;;;;;5.70;4.22;;;;;;;19.70;44.96;101144.41;5069738;28;20039;-81
2022/05/05 09:40:39;;;;;;;6.95;4.30;;;;;;;19.54;45.19;101142.56;5078308;28;20055;-81
2022/05/05 09:43:27;;;;;;;8.75;4.43;;;;;;;19.55;45.64;101141.41;5082290;28;20067;-81
2022/05/05 09:46:25;;;;;;;7.40;5.40;;;;;;;19.76;45.51;101146.50;5078115;28;20067;-81
2022/05/05 09:49:12;;;;;;;8.65;4.97;;;;;;;19.48;46.15;101129.41;5076972;28;20044;-81
2022/05/05 09:58:09;;;;;;;7.57;4.75;;;;;;;19.42;45.78;101137.16;5074152;28;20055;-81
2022/05/05 10:04:00;;;;;;;7.95;4.55;;;;;;;19.20;46.16;101129.63;5058019;28;20052;-81
2022/05/05 10:06:46;;;;;;;13.18;5.40;;;;;;;19.51;45.72;101139.72;5057306;28;20425;-81
2022/05/05 10:09:32;;;;;;;5.47;4.50;;;;;;;19.16;46.26;101126.00;5057758;28;20429;-81
2022/05/05 10:12:18;;;;;;;9.25;5.03;;;;;;;19.30;46.91;101129.03;5073839;28;20043;-81
2022/05/05 10:15:04;;;;;;;11.77;6.40;;;;;;;19.53;46.64;101135.44;5071694;28;20059;-81
2022/05/05 10:17:49;;;;;;;7.18;5.03;;;;;;;19.37;46.29;101131.13;5076893;28;20696;-81
2022/05/05 10:20:36;;;;;;;14.15;5.68;;;;;;;20.20;44.99;101133.06;5058439;28;20055;-81
2022/05/05 10:24:01;;;;;;;8.73;5.32;;;;;;;19.82;45.25;101133.19;5066495;28;20051;-81
2022/05/05 10:26:51;;;;;;;9.93;6.55;;;;;;;19.77;45.50;101133.50;5075971;28;20051;-81
2022/05/05 10:29:40;;;;;;;7.93;4.82;;;;;;;19.59;45.95;101136.75;5073597;28;20051;-80
2022/05/05 10:32:28;;;;;;;9.20;6.15;;;;;;;19.47;46.17;101127.81;5068604;28;20055;-81
2022/05/05 10:35:12;;;;;;;17.92;6.57;;;;;;;20.05;45.09;101134.00;5065099;28;20142;-81
2022/05/05 10:37:57;;;;;;;7.82;5.60;;;;;;;19.94;44.62;101125.53;5059372;28;20065;-81
2022/05/05 10:40:44;;;;;;;7.68;5.88;;;;;;;20.05;44.58;101125.72;5066272;28;20048;-81
2022/05/05 10:43:32;;;;;;;12.57;5.95;;;;;;;20.15;44.22;101124.28;5059265;28;20060;-81
2022/05/05 10:46:55;;;;;;;14.88;5.05;;;;;;;20.04;44.34;101118.59;5067139;28;20047;-81
2022/05/05 10:49:39;;;;;;;7.70;4.47;;;;;;;19.60;44.35;101121.78;5070336;28;20051;-84
2022/05/05 10:52:24;;;;;;;7.60;4.43;;;;;;;19.59;43.77;101122.94;5056084;28;20052;-82
2022/05/05 10:55:24;;;;;;;7.22;3.80;;;;;;;19.57;43.79;101128.03;5079884;28;20511;-82
2022/05/05 10:58:10;;;;;;;;;;;;;;;19.79;44.01;101122.91;5065326;28;20043;-81
2022/05/05 11:00:56;;;;;;;;;;;;;;;19.66;44.03;101124.25;5068523;28;19912;-80
2022/05/05 11:04:01;;;;;;;;;;;;;;;19.95;42.59;101134.63;5063888;28;19912;-80
2022/05/05 11:06:49;;;;;;;;;;;;;;;19.88;43.00;101126.19;5060950;28;19912;-80
2022/05/05 11:09:35;;;;;;;;;;;;;;;19.92;43.18;101127.06;5078769;28;20408;-80
2022/05/05 11:12:20;;;;;;;;;;;;;;;20.15;43.17;101127.06;5076963;28;19913;-80
2022/05/05 11:21:35;;;;;;;;;;;;;;;19.72;42.80;101117.25;5075215;28;20388;-78
2022/05/05 11:24:27;;;;;;;;;;;;;;;20.03;43.24;101122.50;5073669;28;19912;-78
2022/05/05 11:27:13;;;;;;;;;;;;;;;20.23;42.83;101123.22;5076452;28;19912;-79
2022/05/05 11:29:59;;;;;;;;;;;;;;;20.39;41.17;101113.66;5071070;28;19912;-78
2022/05/05 11:32:44;;;;;;;;;;;;;;;19.87;41.43;101108.84;5065922;28;20295;-79
2022/05/05 11:35:29;;;;;;;;;;;;;;;19.87;42.02;101113.56;5069163;28;19913;-78
2022/05/05 11:38:16;;;;;;;;;;;;;;;20.13;42.02;101105.31;5069312;28;20428;-78
2022/05/05 11:41:05;;;;;;;;;;;;;;;19.91;42.23;101115.22;5068570;28;19916;-79
2022/05/05 11:46:53;;;;;;;;;;;;;;;19.85;43.44;101097.38;5074156;28;19920;-78
2022/05/05 11:49:39;;;;;;;;;;;;;;;19.87;44.16;101097.78;5070566;28;19916;-79
2022/05/05 11:52:24;;;;;;;;;;;;;;;20.19;43.94;101103.84;5062981;28;20292;-78
2022/05/05 11:55:10;;;;;;;;;;;;;;;20.30;43.23;101102.06;5071765;28;19912;-79
2022/05/05 11:57:55;;;;;;;;;;;;;;;20.41;42.85;101094.75;5064001;28;19913;-78
2022/05/05 12:03:43;;;;;;;;;;;;;;;20.41;43.03;101088.44;5076979;28;19912;-78
2022/05/05 12:06:28;;;;;;;;;;;;;;;20.45;44.16;101094.81;5076306;28;19912;-78
2022/05/05 12:09:13;;;;;;;;;;;;;;;21.00;41.75;101095.94;5093218;28;19916;-79
2022/05/05 12:12:07;;;;;;;;;;;;;;;20.98;41.56;101089.19;5076600;28;19913;-79
2022/05/05 12:14:57;;;;;;;;;;;;;;;20.90;42.67;101088.31;5067899;28;19913;-78
2022/05/05 12:17:50;;;;;;;;;;;;;;;20.63;43.24;101093.06;5072100;28;19913;-78
2022/05/05 12:20:34;;;;;;;;;;;;;;;20.40;43.82;101086.84;5067715;28;19912;-79
2022/05/05 12:23:20;;;;;;;;;;;;;;;20.59;44.12;101083.94;5067988;28;19912;-78
2022/05/05 12:26:05;;;;;;;;;;;;;;;20.33;44.95;101083.97;5068732;28;19912;-79
2022/05/05 12:28:50;;;;;;;;;;;;;;;20.52;41.36;101074.78;5076995;28;19924;-81
2022/05/05 12:31:35;;;;;;;;;;;;;;;20.55;42.23;101085.88;5080043;28;19912;-83
2022/05/05 12:34:25;;;;;;;;;;;;;;;20.36;42.18;101067.47;5097897;28;19912;-80
2022/05/05 12:37:19;;;;;;;;;;;;;;;20.92;42.75;101080.44;5078620;28;19913;-80
2022/05/05 12:40:05;;;;;;;;;;;;;;;20.63;43.68;101075.69;5078343;28;19912;-81
2022/05/05 12:42:50;;;;;;;;;;;;;;;21.02;42.25;101084.50;5079511;28;19912;-81
2022/05/05 12:45:35;;;;;;;;;;;;;;;20.74;42.80;101080.19;5064100;28;19912;-82
2022/05/05 12:48:23;;;;;;;;;;;;;;;20.64;41.99;101082.81;5058448;28;19917;-81
2022/05/05 12:51:14;;;;;;;;;;;;;;;20.32;43.32;101072.09;5060162;28;19913;-80
2022/05/05 13:00:15;;;;;;;;;;;;;;;20.58;44.07;101070.50;5075423;28;20364;-81
2022/05/05 13:02:59;;;;;;;;;;;;;;;20.05;45.46;101062.22;5069791;28;19943;-81
2022/05/05 13:05:45;;;;;;;;;;;;;;;19.90;46.14;101049.34;5080796;28;20368;-80
2022/05/05 13:08:29;;;;;;;;;;;;;;;19.75;46.81;101045.56;5065736;28;19917;-82
2022/05/05 13:11:14;;;;;;;;;;;;;;;19.56;46.54;101054.69;5073844;28;19912;-81
2022/05/05 13:13:59;;;;;;;;;;;;;;;19.77;47.30;101047.94;5062939;28;19912;-81
2022/05/05 13:16:43;;;;;;;;;;;;;;;19.67;47.13;101054.88;5078763;28;19912;-82
2022/05/05 13:19:29;;;;;;;;;;;;;;;19.79;47.36;101048.38;5073342;28;19912;-81
2022/05/05 13:22:13;;;;;;;;;;;;;;;19.79;48.13;101048.38;5082418;28;19912;-81
2022/05/05 13:24:58;;;;;;;;;;;;;;;19.76;50.64;101060.16;5080516;28;19913;-82
2022/05/05 13:27:43;;;;;;;;;;;;;;;19.66;51.10;101056.03;5082895;28;19924;-82
2022/05/05 13:30:27;;;;;;;;;;;;;;;19.54;50.76;101045.19;5065466;28;20373;-82
2022/05/05 13:33:12;;;;;;;;;;;;;;;19.19;50.60;101048.88;5064640;28;19916;-81
2022/05/05 13:35:56;;;;;;;;;;;;;;;19.20;50.71;101033.91;5070999;28;19916;-82
2022/05/05 13:38:41;;;;;;;;;;;;;;;19.30;50.62;101035.25;5074994;28;19916;-82
2022/05/05 13:41:26;;;;;;;;;;;;;;;19.21;51.09;101049.28;5079449;28;19912;-81
2022/05/05 13:44:10;;;;;;;;;;;;;;;19.46;50.71;101022.19;5076103;28;19916;-83
2022/05/05 13:46:55;;;;;;;;;;;;;;;19.37;51.52;101029.09;5077926;28;20420;-81
2022/05/05 13:49:41;;;;;;;;;;;;;;;19.51;50.91;101021.88;5080824;28;19920;-81
2022/05/05 13:52:26;;;;;;;;;;;;;;;19.43;51.36;101024.88;5105201;22;19919;-79
2022/05/05 13:55:11;;;;;;;;;;;;;;;19.17;52.02;101020.06;5098832;28;19916;-80
2022/05/05 13:58:03;;;;;;;;;;;;;;;19.12;51.85;101018.41;5097391;28;19912;-79
2022/05/05 14:00:47;;;;;;;;;;;;;;;19.18;51.50;101016.16;5094231;28;19911;-78
2022/05/05 14:03:32;;;;;;;;;;;;;;;19.09;52.24;101012.84;5090420;28;19912;-80
2022/05/05 14:06:16;;;;;;;;;;;;;;;19.53;51.04;101018.78;5080810;28;19912;-79
2022/05/05 14:12:15;;;;;;;;;;;;;;;19.02;52.76;101009.94;5065155;28;19917;-81
2022/05/05 14:15:00;;;;;;;;;;;;;;;18.97;52.04;101001.97;5064936;28;19913;-80
2022/05/05 14:17:45;;;;;;;;;;;;;;;18.95;52.62;101015.31;5070352;28;19920;-81
2022/05/05 14:20:30;;;;;;;;;;;;;;;19.01;52.46;101017.41;5064002;28;19916;-80
2022/05/05 14:23:15;;;;;;;;;;;;;;;19.30;49.86;101012.44;5067325;28;19912;-82
2022/05/05 14:26:00;;;;;;;;;;;;;;;18.96;50.17;101003.13;5077513;28;20344;-81
2022/05/05 14:28:44;;;;;;;;;;;;;;;18.90;51.67;101008.13;5083084;28;20384;-81
2022/05/05 14:31:29;;;;;;;;;;;;;;;18.88;52.08;101006.91;5066296;28;19916;-81
2022/05/05 14:34:17;;;;;;;;;;;;;;;18.96;51.94;101008.63;5071792;28;19923;-81
2022/05/05 14:37:02;;;;;;;;;;;;;;;18.89;52.13;101005.75;5079749;28;19914;-81
2022/05/05 14:39:46;;;;;;;;;;;;;;;18.85;52.08;101007.63;5060799;28;19912;-81
2022/05/05 14:42:31;;;;;;;;;;;;;;;18.85;52.58;101005.66;5064551;28;19912;-81
2022/05/05 14:45:17;;;;;;;;;;;;;;;18.83;52.42;101005.25;5078401;28;19916;-81
2022/05/05 14:48:02;;;;;;;;;;;;;;;18.94;52.23;100999.94;5073145;28;19912;-81
2022/05/05 14:50:47;;;;;;;;;;;;;;;18.94;52.01;101014.53;5067854;28;21111;-81
2022/05/05 14:53:32;;;;;;;;;;;;;;;18.98;51.85;101000.81;5061155;28;19912;-81
2022/05/05 14:56:16;;;;;;;;;;;;;;;18.80;51.56;101000.44;5067925;28;20192;-83
2022/05/05 14:59:02;;;;;;;;;;;;;;;18.74;52.17;101004.69;5072817;28;19912;-81
2022/05/05 15:01:47;;;;;;;;;;;;;;;18.62;52.26;101000.09;5075104;28;19912;-81